createdAt,value
2022-09-28T00:00:41.382Z,93895.81
2022-09-28T00:25:43.219Z,93897.57
2022-09-28T01:04:38.191Z,93887.40
2022-09-28T01:11:22.688Z,93894.04
2022-09-28T01:17:24.957Z,93901.77
2022-09-28T01:41:57.030Z,93932.75
2022-09-28T02:10:48.780Z,93935.06
2022-09-28T02:47:00.657Z,93965.95
2022-09-28T03:18:18.876Z,93990.20
2022-09-28T03:46:21.371Z,94022.21
2022-09-28T03:52:42.126Z,94027.17
2022-09-28T04:03:07.805Z,94025.01
2022-09-28T04:06:27.967Z,94023.98
2022-09-28T04:08:57.231Z,94023.25
2022-09-28T04:12:02.844Z,94026.45
2022-09-28T04:17:40.219Z,94037.91
2022-09-28T04:20:18.048Z,94042.50
2022-09-28T04:22:57.713Z,94043.08
2022-09-28T04:25:24.528Z,94047.60
2022-09-28T04:28:09.488Z,94049.75
2022-09-28T04:30:36.256Z,94059.69
2022-09-28T04:36:33.156Z,94056.70
2022-09-28T04:39:22.306Z,94053.27
2022-09-28T04:41:52.474Z,94055.38
2022-09-28T04:44:22.763Z,94064.96
2022-09-28T04:46:55.496Z,94066.99
2022-09-28T04:49:44.958Z,94060.20
2022-09-28T04:52:22.758Z,94063.27
2022-09-28T04:55:14.108Z,94064.08
2022-09-28T04:57:40.705Z,94072.70
2022-09-28T05:00:08.242Z,94074.09
2022-09-28T05:02:35.674Z,94072.83
2022-09-28T05:09:16.101Z,94072.08
2022-09-28T05:11:42.882Z,94075.09
2022-09-28T05:24:25.578Z,94086.84
2022-09-28T05:26:53.389Z,94096.81
2022-09-28T05:33:19.344Z,94103.61
2022-09-28T05:36:04.139Z,94097.39
2022-09-28T05:39:04.179Z,94104.02
2022-09-28T05:41:39.407Z,94105.98
2022-09-28T05:47:37.525Z,94103.36
2022-09-28T05:50:16.349Z,94108.54
2022-09-28T05:56:59.469Z,94119.19
2022-09-28T06:03:25.969Z,94098.32
2022-09-28T06:05:55.366Z,94102.77
2022-09-28T06:08:31.202Z,94096.17
2022-09-28T06:15:16.399Z,94108.02
2022-09-28T06:21:47.301Z,94129.77
2022-09-28T06:28:54.459Z,94131.00
2022-09-28T06:31:25.786Z,94123.52
2022-09-28T06:41:15.905Z,94121.23
2022-09-28T06:44:03.853Z,94129.11
2022-09-28T06:50:17.034Z,94143.30
2022-09-28T07:00:29.825Z,94147.70
2022-09-28T07:03:08.607Z,94146.38
2022-09-28T07:09:32.410Z,94153.48
2022-09-28T07:12:19.718Z,94148.17
2022-09-28T07:18:46.091Z,94151.51
2022-09-28T07:21:29.222Z,94147.90
2022-09-28T07:24:07.010Z,94153.16
2022-09-28T07:27:17.169Z,94156.50
2022-09-28T07:30:44.231Z,94162.11
2022-09-28T07:51:00.202Z,94185.88
2022-09-28T07:53:44.690Z,94183.60
2022-09-28T08:21:48.098Z,94199.91
2022-09-28T08:44:45.138Z,94220.82
2022-09-28T09:02:03.404Z,94218.94
2022-09-28T09:08:49.555Z,94218.05
2022-09-28T09:14:58.694Z,94206.83
2022-09-28T09:17:31.392Z,94202.34
2022-09-28T09:20:16.012Z,94200.70
2022-09-28T09:22:56.478Z,94205.72
2022-09-28T09:25:28.055Z,94209.88
2022-09-28T09:27:57.230Z,94210.02
2022-09-28T09:30:28.987Z,94205.91
2022-09-28T09:33:00.278Z,94207.31
2022-09-28T09:35:31.410Z,94212.27
2022-09-28T09:38:16.803Z,94220.48
2022-09-28T09:40:53.779Z,94219.77
2022-09-28T09:43:55.310Z,94217.25
2022-09-28T09:46:45.409Z,94212.39
2022-09-28T09:49:24.336Z,94216.27
2022-09-28T09:52:10.027Z,94217.64
2022-09-28T09:54:50.572Z,94215.27
2022-09-28T09:57:34.366Z,94214.06
2022-09-28T10:00:16.934Z,94212.84
2022-09-28T10:03:00.059Z,94216.14
2022-09-28T10:05:34.077Z,94222.55
2022-09-28T10:08:12.670Z,94219.95
2022-09-28T10:10:54.054Z,94215.58
2022-09-28T10:13:21.215Z,94203.70
2022-09-28T10:15:50.920Z,94195.29
2022-09-28T10:18:33.370Z,94199.73
2022-09-28T10:21:21.106Z,94210.49
2022-09-28T10:23:59.029Z,94213.05
2022-09-28T10:26:38.582Z,94212.19
2022-09-28T10:29:13.965Z,94210.86
2022-09-28T10:31:42.816Z,94209.28
2022-09-28T10:34:15.224Z,94204.83
2022-09-28T10:36:57.918Z,94205.14
2022-09-28T10:39:28.578Z,94204.88
2022-09-28T10:41:58.283Z,94201.12
2022-09-28T10:44:26.884Z,94200.44
2022-09-28T10:47:18.508Z,94200.81
2022-09-28T10:49:47.856Z,94201.30
2022-09-28T10:52:36.326Z,94200.04
2022-09-28T10:55:23.400Z,94200.86
2022-09-28T10:57:50.907Z,94206.16
2022-09-28T11:00:31.476Z,94203.02
2022-09-28T11:03:26.079Z,94202.33
2022-09-28T11:05:54.188Z,94199.45
2022-09-28T11:08:28.642Z,94195.48
2022-09-28T11:11:10.598Z,94192.46
2022-09-28T11:13:39.356Z,94191.98
2022-09-28T11:16:18.311Z,94193.04
2022-09-28T11:18:45.069Z,94190.86
2022-09-28T11:21:21.359Z,94193.20
2022-09-28T11:24:05.338Z,94194.63
2022-09-28T11:26:38.379Z,94190.84
2022-09-28T11:29:06.887Z,94190.44
2022-09-28T11:31:47.610Z,94192.70
2022-09-28T11:34:41.820Z,94196.89
2022-09-28T11:37:28.346Z,94195.45
2022-09-28T11:40:14.755Z,94196.80
2022-09-28T11:42:44.365Z,94199.38
2022-09-28T11:45:30.069Z,94200.42
2022-09-28T11:48:13.100Z,94201.10
2022-09-28T11:50:40.030Z,94197.60
2022-09-28T11:53:06.737Z,94202.17
2022-09-28T11:55:37.254Z,94197.39
2022-09-28T11:58:10.469Z,94200.73
2022-09-28T12:00:39.764Z,94194.39
2022-09-28T12:03:13.118Z,94198.29
2022-09-28T12:05:44.648Z,94199.65
2022-09-28T12:08:11.893Z,94193.99
2022-09-28T12:10:51.932Z,94190.59
2022-09-28T12:13:26.916Z,94191.48
2022-09-28T12:21:29.821Z,94196.42
2022-09-28T12:24:00.629Z,94200.55
2022-09-28T12:26:41.684Z,94202.13
2022-09-28T12:29:15.665Z,94205.85
2022-09-28T12:32:01.049Z,94209.64
2022-09-28T12:34:27.660Z,94206.93
2022-09-28T12:37:19.774Z,94201.67
2022-09-28T12:40:13.582Z,94202.17
2022-09-28T12:42:40.863Z,94204.97
2022-09-28T12:45:23.044Z,94204.51
2022-09-28T12:47:52.394Z,94204.85
2022-09-28T12:50:38.754Z,94206.04
2022-09-28T12:53:06.096Z,94203.31
2022-09-28T12:55:42.334Z,94208.96
2022-09-28T12:58:21.630Z,94205.77
2022-09-28T13:01:01.470Z,94206.27
2022-09-28T13:03:34.489Z,94208.45
2022-09-28T13:06:15.503Z,94208.45
2022-09-28T13:08:42.066Z,94212.20
2022-09-28T13:11:23.694Z,94212.02
2022-09-28T13:13:53.941Z,94214.30
2022-09-28T13:16:33.209Z,94209.36
2022-09-28T13:19:10.639Z,94210.86
2022-09-28T13:21:43.522Z,94208.87
2022-09-28T13:24:31.105Z,94207.99
2022-09-28T13:27:03.982Z,94210.05
2022-09-28T13:29:31.558Z,94215.38
2022-09-28T13:31:59.494Z,94212.48
2022-09-28T13:34:28.543Z,94210.51
2022-09-28T13:37:16.394Z,94213.48
2022-09-28T13:39:46.015Z,94213.05
2022-09-28T13:42:22.481Z,94216.54
2022-09-28T13:44:57.870Z,94213.35
2022-09-28T13:47:41.790Z,94213.84
2022-09-28T13:50:14.510Z,94210.51
2022-09-28T13:52:51.682Z,94207.46
2022-09-28T13:55:27.290Z,94209.23
2022-09-28T13:58:05.101Z,94211.41
2022-09-28T14:00:37.677Z,94211.21
2022-09-28T14:03:25.611Z,94209.60
2022-09-28T14:06:04.390Z,94210.69
2022-09-28T14:08:32.955Z,94210.98
2022-09-28T14:11:23.992Z,94211.27
2022-09-28T14:14:15.420Z,94211.48
2022-09-28T14:16:42.238Z,94213.38
2022-09-28T14:19:17.848Z,94216.91
2022-09-28T14:21:58.598Z,94216.06
2022-09-28T14:24:40.465Z,94213.47
2022-09-28T14:27:25.405Z,94215.27
2022-09-28T14:30:16.728Z,94215.71
2022-09-28T14:32:52.813Z,94213.83
2022-09-28T14:35:22.173Z,94215.30
2022-09-28T14:38:08.355Z,94208.86
2022-09-28T14:41:09.845Z,94211.11
2022-09-28T14:43:56.674Z,94210.05
2022-09-28T14:46:27.967Z,94207.36
2022-09-28T14:48:57.932Z,94210.67
2022-09-28T14:51:32.345Z,94210.07
2022-09-28T14:54:00.546Z,94205.52
2022-09-28T14:56:38.185Z,94206.70
2022-09-28T14:59:05.360Z,94215.33
2022-09-28T15:01:33.682Z,94212.38
2022-09-28T15:04:04.236Z,94215.98
2022-09-28T15:06:45.563Z,94216.98
2022-09-28T15:09:36.032Z,94218.51
2022-09-28T15:12:04.438Z,94221.30
2022-09-28T15:14:32.636Z,94212.98
2022-09-28T15:17:03.058Z,94212.70
2022-09-28T15:19:38.404Z,94216.41
2022-09-28T15:22:13.554Z,94215.60
2022-09-28T15:24:44.807Z,94217.48
2022-09-28T15:27:15.445Z,94220.48
2022-09-28T15:29:52.306Z,94215.69
2022-09-28T15:32:25.257Z,94219.27
2022-09-28T15:34:52.333Z,94215.34
2022-09-28T15:37:21.292Z,94212.67
2022-09-28T15:39:52.724Z,94216.81
2022-09-28T15:42:19.767Z,94219.66
2022-09-28T15:45:00.088Z,94219.93
2022-09-28T15:47:27.878Z,94218.55
2022-09-28T15:50:02.212Z,94216.80
2022-09-28T15:52:39.222Z,94217.30
2022-09-28T15:55:18.111Z,94218.39
2022-09-28T15:57:44.780Z,94222.51
2022-09-28T16:00:37.575Z,94224.52
2022-09-28T16:03:07.613Z,94225.58
2022-09-28T16:08:04.141Z,94218.95
2022-09-28T16:10:35.252Z,94216.80
2022-09-28T16:13:12.803Z,94218.55
2022-09-28T16:15:39.545Z,94220.15
2022-09-28T16:18:19.553Z,94220.98
2022-09-28T16:20:47.613Z,94217.77
2022-09-28T16:23:14.058Z,94212.63
2022-09-28T16:25:46.984Z,94217.11
2022-09-28T16:28:24.709Z,94223.42
2022-09-28T16:31:00.421Z,94226.52
2022-09-28T16:33:28.453Z,94227.70
2022-09-28T16:35:54.939Z,94225.77
2022-09-28T16:38:21.504Z,94222.80
2022-09-28T16:40:49.422Z,94222.38
2022-09-28T16:43:26.088Z,94219.08
2022-09-28T16:46:00.556Z,94219.67
2022-09-28T16:48:28.661Z,94216.70
2022-09-28T16:50:55.727Z,94217.67
2022-09-28T16:53:40.600Z,94217.95
2022-09-28T16:56:07.426Z,94221.20
2022-09-28T16:58:34.043Z,94224.45
2022-09-28T17:01:00.671Z,94223.08
2022-09-28T17:03:27.829Z,94222.61
2022-09-28T17:05:54.701Z,94219.98
2022-09-28T17:08:22.482Z,94225.41
2022-09-28T17:11:14.493Z,94225.58
2022-09-28T17:13:41.874Z,94222.45
2022-09-28T17:16:13.545Z,94227.52
2022-09-28T17:18:40.301Z,94227.48
2022-09-28T17:21:10.599Z,94225.30
2022-09-28T17:23:42.299Z,94223.02
2022-09-28T17:26:16.230Z,94225.02
2022-09-28T17:28:42.782Z,94221.47
2022-09-28T17:31:14.853Z,94220.63
2022-09-28T17:33:45.353Z,94222.81
2022-09-28T17:36:16.936Z,94221.59
2022-09-28T17:38:44.087Z,94224.07
2022-09-28T17:41:20.030Z,94223.38
2022-09-28T17:43:47.087Z,94224.87
2022-09-28T17:46:21.844Z,94228.55
2022-09-28T17:48:48.472Z,94233.38
2022-09-28T17:51:15.210Z,94235.16
2022-09-28T17:53:41.714Z,94234.30
2022-09-28T17:56:09.205Z,94232.30
2022-09-28T17:58:36.035Z,94234.92
2022-09-28T18:01:02.602Z,94241.71
2022-09-28T18:03:29.555Z,94239.59
2022-09-28T18:06:03.801Z,94240.17
2022-09-28T18:08:30.828Z,94246.70
2022-09-28T18:10:57.401Z,94249.59
2022-09-28T18:13:24.797Z,94249.80
2022-09-28T18:15:52.080Z,94256.77
2022-09-28T18:18:18.878Z,94262.98
2022-09-28T18:20:45.556Z,94260.94
2022-09-28T18:23:19.762Z,94258.30
2022-09-28T18:25:46.541Z,94257.58
2022-09-28T18:28:13.545Z,94255.23
2022-09-28T18:30:44.272Z,94256.45
2022-09-28T18:33:13.847Z,94258.48
2022-09-28T18:35:40.863Z,94257.11
2022-09-28T18:38:07.531Z,94254.27
2022-09-28T18:40:34.740Z,94250.55
2022-09-28T18:43:01.633Z,94254.33
2022-09-28T18:45:32.514Z,94253.20
2022-09-28T18:47:59.142Z,94249.65
2022-09-28T18:50:25.746Z,94252.53
2022-09-28T18:52:52.372Z,94250.63
2022-09-28T18:55:19.381Z,94252.66
2022-09-28T18:57:49.469Z,94260.09
2022-09-28T19:00:16.225Z,94257.23
2022-09-28T19:02:42.873Z,94258.44
2022-09-28T19:05:09.545Z,94251.11
2022-09-28T19:07:36.289Z,94256.48
2022-09-28T19:10:02.977Z,94259.23
2022-09-28T19:12:29.711Z,94259.40
2022-09-28T19:14:56.229Z,94257.02
2022-09-28T19:17:23.253Z,94259.04
2022-09-28T19:19:51.034Z,94256.52
2022-09-28T19:22:17.555Z,94256.70
2022-09-28T19:24:44.143Z,94261.70
2022-09-28T19:27:10.776Z,94255.11
2022-09-28T19:29:37.245Z,94259.61
2022-09-28T19:32:03.908Z,94257.51
2022-09-28T19:34:30.443Z,94260.96
2022-09-28T19:36:57.310Z,94263.37
2022-09-28T19:39:24.774Z,94262.96
2022-09-28T19:41:51.810Z,94263.83
2022-09-28T19:44:26.633Z,94261.52
2022-09-28T19:46:55.170Z,94261.84
2022-09-28T19:49:22.790Z,94260.71
2022-09-28T19:54:37.470Z,94259.41
2022-09-28T19:57:08.260Z,94252.49
2022-09-28T19:59:37.654Z,94252.14
2022-09-28T20:02:09.508Z,94242.33
2022-09-28T20:04:36.181Z,94241.59
2022-09-28T20:07:03.057Z,94243.80
2022-09-28T20:09:29.712Z,94240.95
2022-09-28T20:11:56.669Z,94245.52
2022-09-28T20:14:25.842Z,94245.46
2022-09-28T20:16:54.848Z,94249.07
2022-09-28T20:19:22.617Z,94256.44
2022-09-28T20:21:49.820Z,94259.59
2022-09-28T20:24:16.637Z,94265.70
2022-09-28T20:26:43.998Z,94265.09
2022-09-28T20:29:10.888Z,94265.25
2022-09-28T20:31:37.417Z,94264.17
2022-09-28T20:34:04.951Z,94268.48
2022-09-28T20:36:33.067Z,94269.77
2022-09-28T20:39:03.770Z,94266.50
2022-09-28T20:41:34.897Z,94270.73
2022-09-28T20:44:05.563Z,94270.94
2022-09-28T20:46:35.016Z,94268.14
2022-09-28T20:49:01.888Z,94267.63
2022-09-28T20:51:28.346Z,94270.41
2022-09-28T20:53:55.785Z,94271.61
2022-09-28T20:56:23.813Z,94264.21
2022-09-28T20:58:50.737Z,94263.54
2022-09-28T21:01:18.603Z,94264.98
2022-09-28T21:03:47.291Z,94264.34
2022-09-28T21:06:14.689Z,94263.73
2022-09-28T21:08:41.812Z,94265.62
2022-09-28T21:11:08.346Z,94265.13
2022-09-28T21:13:34.900Z,94264.48
2022-09-28T21:16:02.009Z,94269.92
2022-09-28T21:18:30.010Z,94270.29
2022-09-28T21:20:56.592Z,94271.70
2022-09-28T21:23:25.043Z,94275.73
2022-09-28T21:25:53.625Z,94279.78
2022-09-28T21:28:20.137Z,94281.23
2022-09-28T21:30:46.688Z,94289.36
2022-09-28T21:33:13.259Z,94291.79
2022-09-28T21:35:40.028Z,94290.38
2022-09-28T21:38:06.784Z,94289.98
2022-09-28T21:40:33.462Z,94287.77
2022-09-28T21:43:00.960Z,94288.41
2022-09-28T21:45:27.540Z,94291.59
2022-09-28T21:47:53.979Z,94294.27
2022-09-28T21:50:24.187Z,94297.39
2022-09-28T21:52:51.703Z,94299.01
2022-09-28T21:55:19.043Z,94300.75
2022-09-28T21:57:46.840Z,94300.61
2022-09-28T22:00:18.870Z,94297.02
2022-09-28T22:02:45.649Z,94296.70
2022-09-28T22:05:12.838Z,94298.30
2022-09-28T22:07:39.584Z,94303.27
2022-09-28T22:10:06.876Z,94303.27
2022-09-28T22:12:33.501Z,94304.55
2022-09-28T22:15:00.423Z,94305.16
2022-09-28T22:17:26.958Z,94306.91
2022-09-28T22:19:53.506Z,94308.70
2022-09-28T22:22:20.138Z,94304.59
2022-09-28T22:24:46.568Z,94299.70
2022-09-28T22:27:14.789Z,94302.99
2022-09-28T22:29:42.075Z,94300.02
2022-09-28T22:32:08.643Z,94303.36
2022-09-28T22:34:35.228Z,94302.95
2022-09-28T22:37:05.216Z,94300.52
2022-09-28T22:39:36.798Z,94295.21
2022-09-28T22:42:07.664Z,94293.03
2022-09-28T22:44:35.121Z,94293.65
2022-09-28T22:47:02.886Z,94299.81
2022-09-28T22:49:30.873Z,94299.71
2022-09-28T22:51:57.460Z,94298.90
2022-09-28T22:54:24.089Z,94296.83
2022-09-28T22:56:50.634Z,94301.36
2022-09-28T22:59:17.123Z,94311.16
2022-09-28T23:01:43.756Z,94306.05
2022-09-28T23:04:13.791Z,94307.34
2022-09-28T23:06:40.557Z,94303.34
2022-09-28T23:09:07.012Z,94300.95
2022-09-28T23:11:33.490Z,94298.62
2022-09-28T23:14:00.124Z,94292.66
2022-09-28T23:16:26.895Z,94292.51
2022-09-28T23:18:54.284Z,94293.26
2022-09-28T23:21:22.181Z,94299.83
2022-09-28T23:23:53.233Z,94299.10
2022-09-28T23:26:21.390Z,94295.98
2022-09-28T23:28:47.947Z,94296.03
2022-09-28T23:31:15.572Z,94293.95
2022-09-28T23:33:42.107Z,94284.34
2022-09-28T23:36:09.905Z,94284.41
2022-09-28T23:38:37.154Z,94283.17
2022-09-28T23:41:04.233Z,94279.33
2022-09-28T23:43:31.102Z,94272.85
2022-09-28T23:45:57.556Z,94272.77
2022-09-28T23:48:24.093Z,94266.41
2022-09-28T23:50:50.843Z,94266.86
2022-09-28T23:53:17.249Z,94265.44
2022-09-28T23:55:43.695Z,94262.86
2022-09-28T23:58:11.001Z,94266.94
